createdAt,value
2018-02-18T00:02:19.824Z,-0.22
2018-02-18T00:04:47.858Z,-0.24
2018-02-18T00:07:25.348Z,-0.27
2018-02-18T00:09:52.542Z,-0.27
2018-02-18T00:12:21.258Z,-0.27
2018-02-18T00:14:47.645Z,-0.24
2018-02-18T00:17:18.011Z,-0.21
2018-02-18T00:19:44.160Z,-0.19
2018-02-18T00:22:11.299Z,-0.17
2018-02-18T00:24:37.696Z,-0.15
2018-02-18T00:27:07.663Z,-0.14
2018-02-18T00:29:36.832Z,-0.12
2018-02-18T00:32:03.078Z,-0.12
2018-02-18T00:34:33.858Z,-0.12
2018-02-18T00:37:00.398Z,-0.13
2018-02-18T00:39:26.688Z,-0.15
2018-02-18T00:41:56.122Z,-0.19
2018-02-18T00:44:22.493Z,-0.22
2018-02-18T00:46:49.691Z,-0.25
2018-02-18T00:49:17.068Z,-0.27
2018-02-18T00:51:47.285Z,-0.31
2018-02-18T00:54:15.843Z,-0.33
2018-02-18T00:56:45.601Z,-0.36
2018-02-18T00:59:13.840Z,-0.40
2018-02-18T01:01:40.147Z,-0.41
2018-02-18T01:04:10.093Z,-0.43
2018-02-18T01:09:16.368Z,-0.48
2018-02-18T01:11:43.537Z,-0.48
2018-02-18T01:14:15.040Z,-0.47
2018-02-18T01:16:42.839Z,-0.48
2018-02-18T01:19:09.667Z,-0.48
2018-02-18T01:21:37.900Z,-0.49
2018-02-18T01:24:08.042Z,-0.49
2018-02-18T01:26:34.799Z,-0.49
2018-02-18T01:29:02.116Z,-0.50
2018-02-18T01:31:30.105Z,-0.51
2018-02-18T01:33:57.979Z,-0.52
2018-02-18T01:36:24.295Z,-0.52
2018-02-18T01:38:50.607Z,-0.52
2018-02-18T01:41:17.885Z,-0.53
2018-02-18T01:43:44.212Z,-0.52
2018-02-18T01:46:11.305Z,-0.52
2018-02-18T01:48:39.230Z,-0.52
2018-02-18T01:51:06.481Z,-0.53
2018-02-18T01:53:32.974Z,-0.52
2018-02-18T01:55:59.627Z,-0.51
2018-02-18T01:58:26.920Z,-0.51
2018-02-18T02:00:53.762Z,-0.51
2018-02-18T02:03:20.141Z,-0.52
2018-02-18T02:05:46.706Z,-0.54
2018-02-18T02:08:17.113Z,-0.55
2018-02-18T02:10:44.477Z,-0.57
2018-02-18T02:13:11.987Z,-0.58
2018-02-18T02:15:40.756Z,-0.56
2018-02-18T02:18:07.468Z,-0.55
2018-02-18T02:20:34.988Z,-0.54
2018-02-18T02:23:02.492Z,-0.56
2018-02-18T02:25:29.150Z,-0.58
2018-02-18T02:27:55.369Z,-0.62
2018-02-18T02:30:23.461Z,-0.65
2018-02-18T02:32:49.713Z,-0.69
2018-02-18T02:35:18.411Z,-0.69
2018-02-18T02:37:46.681Z,-0.71
2018-02-18T02:40:13.608Z,-0.72
2018-02-18T02:42:43.366Z,-0.72
2018-02-18T02:45:09.989Z,-0.71
2018-02-18T02:47:36.193Z,-0.71
2018-02-18T02:50:04.657Z,-0.71
2018-02-18T02:52:31.956Z,-0.72
2018-02-18T02:55:00.463Z,-0.72
2018-02-18T02:57:27.339Z,-0.72
2018-02-18T02:59:56.280Z,-0.73
2018-02-18T03:02:22.487Z,-0.74
2018-02-18T03:04:50.647Z,-0.75
2018-02-18T03:07:20.232Z,-0.76
2018-02-18T03:09:47.431Z,-0.77
2018-02-18T03:12:16.259Z,-0.76
2018-02-18T03:14:44.163Z,-0.76
2018-02-18T03:17:11.208Z,-0.79
2018-02-18T03:19:39.237Z,-0.81
2018-02-18T03:22:06.416Z,-0.82
2018-02-18T03:24:35.513Z,-0.81
2018-02-18T03:27:04.052Z,-0.81
2018-02-18T03:29:30.320Z,-0.81
2018-02-18T03:31:57.126Z,-0.77
2018-02-18T03:34:23.333Z,-0.74
2018-02-18T03:36:49.648Z,-0.75
2018-02-18T03:39:16.849Z,-0.74
2018-02-18T03:41:46.708Z,-0.73
2018-02-18T03:44:17.869Z,-0.70
2018-02-18T03:46:45.757Z,-0.70
2018-02-18T03:49:16.334Z,-0.72
2018-02-18T03:51:45.088Z,-0.71
2018-02-18T03:54:15.196Z,-0.71
2018-02-18T03:56:49.164Z,-0.72
2018-02-18T03:59:15.415Z,-0.70
2018-02-18T04:04:32.113Z,-0.69
2018-02-18T04:06:58.214Z,-0.69
2018-02-18T04:09:24.364Z,-0.68
2018-02-18T04:11:50.495Z,-0.68
2018-02-18T04:14:16.604Z,-0.68
2018-02-18T04:16:42.720Z,-0.69
2018-02-18T04:19:08.902Z,-0.70
2018-02-18T04:21:35.004Z,-0.72
2018-02-18T04:24:01.144Z,-0.74
2018-02-18T04:26:27.281Z,-0.74
2018-02-18T04:28:53.428Z,-0.75
2018-02-18T04:31:19.528Z,-0.78
2018-02-18T04:33:45.653Z,-0.81
2018-02-18T04:36:11.830Z,-0.80
2018-02-18T04:38:37.959Z,-0.77
2018-02-18T04:41:04.075Z,-0.75
2018-02-18T04:43:30.229Z,-0.74
2018-02-18T04:45:56.366Z,-0.73
2018-02-18T04:48:22.529Z,-0.73
2018-02-18T04:50:48.644Z,-0.71
2018-02-18T04:53:14.748Z,-0.73
2018-02-18T04:55:40.880Z,-0.74
2018-02-18T04:58:07.030Z,-0.75
2018-02-18T05:00:33.112Z,-0.77
2018-02-18T05:02:59.243Z,-0.78
2018-02-18T05:05:25.409Z,-0.78
2018-02-18T05:07:51.556Z,-0.77
2018-02-18T05:10:17.707Z,-0.78
2018-02-18T05:12:43.795Z,-0.80
2018-02-18T05:15:09.889Z,-0.82
2018-02-18T05:17:36.025Z,-0.82
2018-02-18T05:20:02.164Z,-0.82
2018-02-18T05:22:28.266Z,-0.81
2018-02-18T05:24:54.405Z,-0.81
2018-02-18T05:27:20.491Z,-0.82
2018-02-18T05:29:46.620Z,-0.85
2018-02-18T05:32:12.720Z,-0.86
2018-02-18T05:34:38.850Z,-0.86
2018-02-18T05:37:05.090Z,-0.88
2018-02-18T05:39:31.299Z,-0.89
2018-02-18T05:41:57.381Z,-0.87
2018-02-18T05:44:23.476Z,-0.87
2018-02-18T05:46:49.604Z,-0.88
2018-02-18T05:49:15.756Z,-0.90
2018-02-18T05:51:41.847Z,-0.93
2018-02-18T05:54:07.963Z,-0.95
2018-02-18T05:56:34.039Z,-0.98
2018-02-18T05:59:00.199Z,-0.99
2018-02-18T06:01:26.299Z,-0.99
2018-02-18T06:03:52.397Z,-0.99
2018-02-18T06:06:18.530Z,-0.98
2018-02-18T06:08:44.695Z,-0.97
2018-02-18T06:11:10.804Z,-0.95
2018-02-18T06:13:36.911Z,-0.93
2018-02-18T06:16:03.037Z,-0.88
2018-02-18T06:18:29.173Z,-0.85
2018-02-18T06:20:55.283Z,-0.83
2018-02-18T06:23:21.382Z,-0.81
2018-02-18T06:25:47.489Z,-0.80
2018-02-18T06:28:13.631Z,-0.80
2018-02-18T06:30:39.730Z,-0.80
2018-02-18T06:33:05.903Z,-0.82
2018-02-18T06:35:32.054Z,-0.82
2018-02-18T06:37:58.221Z,-0.83
2018-02-18T06:40:24.359Z,-0.85
2018-02-18T06:42:50.475Z,-0.88
2018-02-18T06:45:16.576Z,-0.92
2018-02-18T06:47:42.678Z,-0.95
2018-02-18T06:50:08.854Z,-0.97
2018-02-18T06:52:34.958Z,-0.99
2018-02-18T06:55:01.075Z,-1.02
2018-02-18T06:57:27.201Z,-1.05
2018-02-18T06:59:53.355Z,-1.08
2018-02-18T07:02:19.486Z,-1.13
2018-02-18T07:04:45.617Z,-1.13
2018-02-18T07:07:11.740Z,-1.16
2018-02-18T07:09:37.932Z,-1.16
2018-02-18T07:12:04.034Z,-1.17
2018-02-18T07:14:30.140Z,-1.18
2018-02-18T07:16:56.316Z,-1.15
2018-02-18T07:19:22.521Z,-1.14
2018-02-18T07:21:48.646Z,-1.10
2018-02-18T07:24:14.835Z,-1.07
2018-02-18T07:26:40.993Z,-1.04
2018-02-18T07:29:07.224Z,-1.01
2018-02-18T07:31:33.352Z,-0.99
2018-02-18T07:33:59.440Z,-0.96
2018-02-18T07:36:25.634Z,-0.93
2018-02-18T07:38:51.759Z,-0.86
2018-02-18T07:41:17.940Z,-0.80
2018-02-18T07:43:44.120Z,-0.72
2018-02-18T07:46:10.235Z,-0.66
2018-02-18T07:48:36.369Z,-0.56
2018-02-18T07:51:02.532Z,-0.49
2018-02-18T07:53:28.650Z,-0.42
2018-02-18T07:55:54.752Z,-0.34
2018-02-18T07:58:20.936Z,-0.26
2018-02-18T08:00:47.088Z,-0.18
2018-02-18T08:03:13.172Z,-0.09
2018-02-18T08:05:39.335Z,-0.02
2018-02-18T08:08:06.148Z,0.04
2018-02-18T08:10:32.325Z,0.12
2018-02-18T08:12:58.507Z,0.19
2018-02-18T08:15:24.660Z,0.25
2018-02-18T08:17:50.909Z,0.32
2018-02-18T08:20:17.923Z,0.42
2018-02-18T08:22:44.118Z,0.53
2018-02-18T08:25:10.267Z,0.67
2018-02-18T08:27:36.456Z,0.80
2018-02-18T08:30:02.685Z,0.93
2018-02-18T08:32:28.844Z,1.05
2018-02-18T08:34:55.082Z,1.17
2018-02-18T08:37:21.248Z,1.28
2018-02-18T08:39:47.465Z,1.42
2018-02-18T08:42:13.664Z,1.55
2018-02-18T08:44:39.894Z,1.77
2018-02-18T08:47:06.127Z,2.14
2018-02-18T08:49:32.319Z,2.89
2018-02-18T08:51:58.479Z,3.89
2018-02-18T08:54:24.904Z,4.93
2018-02-18T08:56:51.099Z,5.77
2018-02-18T08:59:17.292Z,6.25
2018-02-18T09:01:43.492Z,6.92
2018-02-18T09:04:09.731Z,7.23
2018-02-18T09:06:35.961Z,7.55
2018-02-18T09:09:02.218Z,7.75
2018-02-18T09:11:28.399Z,7.73
2018-02-18T09:13:54.572Z,7.88
2018-02-18T09:16:20.801Z,8.22
2018-02-18T09:18:47.172Z,7.94
2018-02-18T09:21:13.427Z,8.14
2018-02-18T09:23:39.618Z,7.94
2018-02-18T09:26:05.845Z,7.46
2018-02-18T09:28:32.028Z,7.49
2018-02-18T09:30:58.263Z,7.02
2018-02-18T09:33:24.460Z,6.66
2018-02-18T09:35:50.677Z,6.42
2018-02-18T09:38:16.833Z,6.34
2018-02-18T09:40:43.113Z,6.19
2018-02-18T09:43:09.309Z,6.36
2018-02-18T09:45:35.484Z,6.49
2018-02-18T09:48:01.702Z,6.58
2018-02-18T09:50:27.896Z,6.49
2018-02-18T09:52:54.042Z,6.21
2018-02-18T09:55:20.286Z,6.11
2018-02-18T09:57:46.506Z,5.93
2018-02-18T10:00:12.747Z,5.72
2018-02-18T10:02:38.916Z,5.77
2018-02-18T10:05:05.131Z,5.74
2018-02-18T10:07:31.341Z,5.68
2018-02-18T10:09:57.603Z,5.71
2018-02-18T10:12:23.811Z,5.71
2018-02-18T10:14:49.995Z,5.76
2018-02-18T10:17:16.205Z,5.76
2018-02-18T10:19:42.407Z,5.82
2018-02-18T10:22:08.583Z,5.79
2018-02-18T10:24:34.764Z,5.78
2018-02-18T10:27:00.997Z,5.81
2018-02-18T10:29:27.252Z,5.83
2018-02-18T10:31:53.511Z,5.85
2018-02-18T10:34:19.789Z,5.84
2018-02-18T10:36:45.952Z,5.90
2018-02-18T10:39:12.143Z,5.97
2018-02-18T10:41:38.387Z,5.99
2018-02-18T10:44:04.635Z,6.04
2018-02-18T10:46:30.889Z,6.10
2018-02-18T10:48:57.054Z,6.16
2018-02-18T10:51:23.254Z,6.24
2018-02-18T10:53:49.473Z,6.23
2018-02-18T10:56:15.592Z,6.24
2018-02-18T10:58:41.732Z,6.20
2018-02-18T11:01:07.949Z,6.29
2018-02-18T11:03:34.159Z,6.42
2018-02-18T11:06:00.354Z,6.50
2018-02-18T11:08:26.541Z,6.53
2018-02-18T11:10:52.745Z,6.60
2018-02-18T11:13:18.990Z,6.66
2018-02-18T11:15:45.172Z,6.68
2018-02-18T11:18:11.375Z,6.77
2018-02-18T11:20:37.587Z,6.79
2018-02-18T11:23:03.819Z,6.80
2018-02-18T11:25:30.005Z,6.84
2018-02-18T11:27:56.216Z,6.85
2018-02-18T11:30:22.475Z,6.94
2018-02-18T11:32:48.715Z,7.03
2018-02-18T11:35:14.939Z,7.01
2018-02-18T11:37:41.161Z,7.09
2018-02-18T11:40:07.413Z,7.15
2018-02-18T11:42:34.410Z,7.21
2018-02-18T11:45:00.630Z,7.26
2018-02-18T11:47:26.870Z,7.38
2018-02-18T11:49:53.112Z,7.47
2018-02-18T11:52:19.465Z,7.51
2018-02-18T11:54:45.509Z,7.52
2018-02-18T11:57:11.757Z,7.61
2018-02-18T11:59:37.923Z,7.63
2018-02-18T12:02:05.345Z,7.64
2018-02-18T12:04:31.594Z,7.61
2018-02-18T12:06:57.769Z,7.68
2018-02-18T12:09:30.866Z,7.73
2018-02-18T12:11:57.103Z,7.71
2018-02-18T12:14:23.398Z,7.58
2018-02-18T12:16:49.582Z,7.64
2018-02-18T12:19:15.809Z,7.66
2018-02-18T12:21:41.965Z,7.75
2018-02-18T12:24:08.170Z,7.86
2018-02-18T12:26:34.397Z,7.99
2018-02-18T12:29:00.573Z,8.01
2018-02-18T12:31:26.769Z,8.05
2018-02-18T12:33:53.062Z,8.11
2018-02-18T12:36:19.359Z,8.18
2018-02-18T12:38:46.515Z,8.21
2018-02-18T12:41:12.718Z,8.27
2018-02-18T12:43:38.963Z,8.29
2018-02-18T12:46:05.145Z,8.32
2018-02-18T12:48:31.317Z,8.36
2018-02-18T12:50:57.538Z,8.41
2018-02-18T12:53:23.763Z,8.44
2018-02-18T12:55:49.912Z,8.45
2018-02-18T12:58:16.223Z,8.44
2018-02-18T13:00:42.431Z,8.48
2018-02-18T13:03:08.707Z,8.50
2018-02-18T13:05:34.959Z,8.52
2018-02-18T13:08:01.115Z,8.54
2018-02-18T13:10:27.285Z,8.53
2018-02-18T13:12:53.542Z,8.54
2018-02-18T13:15:19.703Z,8.59
2018-02-18T13:17:45.866Z,8.59
2018-02-18T13:20:12.151Z,8.55
2018-02-18T13:22:38.392Z,8.50
2018-02-18T13:25:04.622Z,8.53
2018-02-18T13:27:30.855Z,8.52
2018-02-18T13:29:57.090Z,8.54
2018-02-18T13:32:23.276Z,8.52
2018-02-18T13:34:49.574Z,8.55
2018-02-18T13:37:15.762Z,8.56
2018-02-18T13:39:42.051Z,8.62
2018-02-18T13:42:08.258Z,8.70
2018-02-18T13:44:34.477Z,8.76
2018-02-18T13:47:00.623Z,8.85
2018-02-18T13:49:26.811Z,9.24
2018-02-18T13:51:52.995Z,9.76
2018-02-18T13:54:19.209Z,10.50
2018-02-18T13:56:45.387Z,11.12
2018-02-18T13:59:11.748Z,11.31
2018-02-18T14:01:37.890Z,10.95
2018-02-18T14:04:04.193Z,10.72
2018-02-18T14:06:30.432Z,10.42
2018-02-18T14:08:56.621Z,10.18
2018-02-18T14:11:23.127Z,10.07
2018-02-18T14:13:49.344Z,9.97
2018-02-18T14:16:15.524Z,9.83
2018-02-18T14:18:41.704Z,9.73
2018-02-18T14:21:07.971Z,9.69
2018-02-18T14:23:34.291Z,9.56
2018-02-18T14:26:00.430Z,9.37
2018-02-18T14:28:26.666Z,9.37
2018-02-18T14:30:52.938Z,9.35
2018-02-18T14:33:19.203Z,9.30
2018-02-18T14:35:45.604Z,9.27
2018-02-18T14:38:11.741Z,9.23
2018-02-18T14:40:37.904Z,9.21
2018-02-18T14:43:16.389Z,9.19
2018-02-18T14:45:54.608Z,9.18
2018-02-18T14:48:33.974Z,9.14
2018-02-18T14:51:12.381Z,9.11
2018-02-18T14:53:50.771Z,9.09
2018-02-18T14:56:23.895Z,9.08
2018-02-18T14:58:50.059Z,9.06
2018-02-18T15:01:16.284Z,9.05
2018-02-18T15:03:42.588Z,9.07
2018-02-18T15:06:08.862Z,9.12
2018-02-18T15:08:35.104Z,9.08
2018-02-18T15:11:01.291Z,9.08
2018-02-18T15:13:27.538Z,9.07
2018-02-18T15:15:53.914Z,9.04
2018-02-18T15:18:20.163Z,8.97
2018-02-18T15:20:46.378Z,8.93
2018-02-18T15:23:12.648Z,8.93
2018-02-18T15:25:38.900Z,8.87
2018-02-18T15:28:05.057Z,8.86
2018-02-18T15:30:31.232Z,8.82
2018-02-18T15:32:57.436Z,8.75
2018-02-18T15:35:23.641Z,8.76
2018-02-18T15:37:49.886Z,8.75
2018-02-18T15:40:16.049Z,8.71
2018-02-18T15:42:42.253Z,8.71
2018-02-18T15:45:08.458Z,8.72
2018-02-18T15:47:34.638Z,8.71
2018-02-18T15:50:00.801Z,8.67
2018-02-18T15:52:27.034Z,8.56
2018-02-18T15:54:53.293Z,8.53
2018-02-18T15:57:19.463Z,8.49
2018-02-18T15:59:45.652Z,8.46
2018-02-18T16:02:12.046Z,8.42
2018-02-18T16:04:38.460Z,8.35
2018-02-18T16:07:04.767Z,8.28
2018-02-18T16:09:31.088Z,8.23
2018-02-18T16:11:57.266Z,8.14
2018-02-18T16:14:23.498Z,8.08
2018-02-18T16:16:49.641Z,8.02
2018-02-18T16:19:15.789Z,7.93
2018-02-18T16:21:42.897Z,7.85
2018-02-18T16:24:09.176Z,7.78
2018-02-18T16:26:35.403Z,7.70
2018-02-18T16:29:01.683Z,7.60
2018-02-18T16:31:27.897Z,7.53
2018-02-18T16:33:54.167Z,7.53
2018-02-18T16:36:20.408Z,7.47
2018-02-18T16:38:46.538Z,7.42
2018-02-18T16:41:12.896Z,7.36
2018-02-18T16:43:39.728Z,7.27
2018-02-18T16:46:05.913Z,7.18
2018-02-18T16:48:32.061Z,7.12
2018-02-18T16:50:58.312Z,7.07
2018-02-18T16:53:24.471Z,7.00
2018-02-18T16:55:50.720Z,6.90
2018-02-18T16:58:16.885Z,6.82
2018-02-18T17:00:43.048Z,6.75
2018-02-18T17:03:09.235Z,6.67
2018-02-18T17:05:35.540Z,6.57
2018-02-18T17:08:01.762Z,6.48
2018-02-18T17:10:27.946Z,6.41
2018-02-18T17:12:54.159Z,6.35
2018-02-18T17:15:20.399Z,6.26
2018-02-18T17:17:46.589Z,6.14
2018-02-18T17:20:12.775Z,6.03
2018-02-18T17:22:38.959Z,5.92
2018-02-18T17:25:05.233Z,5.81
2018-02-18T17:27:31.465Z,5.71
2018-02-18T17:29:57.689Z,5.64
2018-02-18T17:32:23.818Z,5.53
2018-02-18T17:34:50.043Z,5.46
2018-02-18T17:37:16.226Z,5.39
2018-02-18T17:39:42.470Z,5.31
2018-02-18T17:42:08.692Z,5.23
2018-02-18T17:44:34.970Z,5.13
2018-02-18T17:47:01.172Z,5.07
2018-02-18T17:49:27.400Z,5.01
2018-02-18T17:51:53.665Z,4.98
2018-02-18T17:54:20.333Z,4.93
2018-02-18T17:56:46.612Z,4.88
2018-02-18T17:59:12.906Z,4.85
2018-02-18T18:01:40.321Z,4.82
2018-02-18T18:04:06.569Z,4.79
2018-02-18T18:06:33.544Z,4.74
2018-02-18T18:08:59.733Z,4.69
2018-02-18T18:11:25.949Z,4.65
2018-02-18T18:13:52.126Z,4.60
2018-02-18T18:16:18.382Z,4.56
2018-02-18T18:18:44.663Z,4.52
2018-02-18T18:21:10.888Z,4.48
2018-02-18T18:23:37.188Z,4.45
2018-02-18T18:26:03.407Z,4.45
2018-02-18T18:28:30.466Z,4.47
2018-02-18T18:30:56.684Z,4.48
2018-02-18T18:33:22.846Z,4.47
2018-02-18T18:35:49.101Z,4.52
2018-02-18T18:38:15.311Z,4.59
2018-02-18T18:40:41.503Z,4.63
2018-02-18T18:43:07.698Z,4.62
2018-02-18T18:45:33.922Z,4.69
2018-02-18T18:48:01.537Z,4.74
2018-02-18T18:50:27.859Z,4.77
2018-02-18T18:52:54.040Z,4.78
2018-02-18T18:55:20.250Z,4.76
2018-02-18T18:57:46.479Z,4.77
2018-02-18T19:00:12.680Z,4.79
2018-02-18T19:02:38.868Z,4.78
2018-02-18T19:05:05.162Z,4.74
2018-02-18T19:07:31.366Z,4.71
2018-02-18T19:09:57.562Z,4.63
2018-02-18T19:12:23.794Z,4.58
2018-02-18T19:14:50.071Z,4.48
2018-02-18T19:17:16.326Z,4.47
2018-02-18T19:19:42.531Z,4.47
2018-02-18T19:22:08.761Z,4.44
2018-02-18T19:24:35.044Z,4.43
2018-02-18T19:27:01.299Z,4.42
2018-02-18T19:29:27.475Z,4.43
2018-02-18T19:31:53.684Z,4.43
2018-02-18T19:34:19.966Z,4.44
2018-02-18T19:36:46.244Z,4.46
2018-02-18T19:39:12.452Z,4.46
2018-02-18T19:41:38.655Z,4.44
2018-02-18T19:44:04.847Z,4.47
2018-02-18T19:46:31.076Z,4.47
2018-02-18T19:48:57.237Z,4.48
2018-02-18T19:51:23.492Z,4.51
2018-02-18T19:53:49.731Z,4.49
2018-02-18T19:56:16.003Z,4.53
2018-02-18T19:58:42.228Z,4.51
2018-02-18T20:01:08.426Z,4.53
2018-02-18T20:03:34.674Z,4.53
2018-02-18T20:06:00.938Z,4.51
2018-02-18T20:08:27.174Z,4.49
2018-02-18T20:10:53.398Z,4.49
2018-02-18T20:13:19.585Z,4.50
2018-02-18T20:15:45.876Z,4.50
2018-02-18T20:18:12.032Z,4.49
2018-02-18T20:20:38.206Z,4.48
2018-02-18T20:23:04.462Z,4.47
2018-02-18T20:25:30.698Z,4.44
2018-02-18T20:27:56.892Z,4.44
2018-02-18T20:30:23.058Z,4.44
2018-02-18T20:32:49.237Z,4.41
2018-02-18T20:35:15.445Z,4.41
2018-02-18T20:37:41.675Z,4.44
2018-02-18T20:40:07.873Z,4.39
2018-02-18T20:42:34.059Z,4.36
2018-02-18T20:45:00.292Z,4.35
2018-02-18T20:47:26.463Z,4.37
2018-02-18T20:49:52.682Z,4.34
2018-02-18T20:52:18.893Z,4.31
2018-02-18T20:54:45.073Z,4.31
2018-02-18T20:57:11.250Z,4.29
2018-02-18T20:59:37.432Z,4.29
2018-02-18T21:02:03.637Z,4.29
2018-02-18T21:04:29.885Z,4.32
2018-02-18T21:06:56.111Z,4.32
2018-02-18T21:09:22.303Z,4.35
2018-02-18T21:11:48.530Z,4.36
2018-02-18T21:14:14.715Z,4.39
2018-02-18T21:16:41.046Z,4.41
2018-02-18T21:19:07.213Z,4.42
2018-02-18T21:21:33.377Z,4.44
2018-02-18T21:23:59.610Z,4.44
2018-02-18T21:26:25.788Z,4.44
2018-02-18T21:28:51.953Z,4.46
2018-02-18T21:31:18.158Z,4.46
2018-02-18T21:33:44.334Z,4.48
2018-02-18T21:36:10.521Z,4.48
2018-02-18T21:38:36.692Z,4.50
2018-02-18T21:41:02.888Z,4.48
2018-02-18T21:43:29.089Z,4.43
2018-02-18T21:45:55.292Z,4.41
2018-02-18T21:48:21.450Z,4.41
2018-02-18T21:50:47.715Z,4.39
2018-02-18T21:53:13.924Z,4.36
2018-02-18T21:55:40.155Z,4.30
2018-02-18T21:58:06.331Z,4.31
2018-02-18T22:00:32.558Z,4.27
2018-02-18T22:02:58.726Z,4.22
2018-02-18T22:05:24.945Z,4.19
2018-02-18T22:07:51.125Z,4.15
2018-02-18T22:10:17.323Z,4.13
2018-02-18T22:12:43.513Z,4.08
2018-02-18T22:15:09.732Z,4.04
2018-02-18T22:17:35.951Z,4.02
2018-02-18T22:20:02.113Z,3.97
2018-02-18T22:22:28.323Z,3.93
2018-02-18T22:24:54.534Z,3.91
2018-02-18T22:27:20.792Z,3.88
2018-02-18T22:29:46.954Z,3.86
2018-02-18T22:32:13.184Z,3.83
2018-02-18T22:34:39.350Z,3.80
2018-02-18T22:37:05.554Z,3.80
2018-02-18T22:39:31.733Z,3.80
2018-02-18T22:41:57.907Z,3.80
2018-02-18T22:44:24.104Z,3.81
2018-02-18T22:46:50.370Z,3.81
2018-02-18T22:49:16.583Z,3.82
2018-02-18T22:51:42.824Z,3.81
2018-02-18T22:54:09.009Z,3.79
2018-02-18T22:56:35.314Z,3.80
2018-02-18T22:59:01.487Z,3.78
2018-02-18T23:01:27.706Z,3.77
2018-02-18T23:03:53.921Z,3.76
2018-02-18T23:06:20.148Z,3.69
2018-02-18T23:08:46.294Z,3.69
2018-02-18T23:11:12.504Z,3.67
2018-02-18T23:13:38.663Z,3.66
2018-02-18T23:16:04.886Z,3.64
2018-02-18T23:18:31.080Z,3.58
2018-02-18T23:21:07.359Z,3.58
2018-02-18T23:23:33.538Z,3.53
2018-02-18T23:25:59.768Z,3.51
2018-02-18T23:28:28.894Z,3.49
2018-02-18T23:30:55.061Z,3.48
2018-02-18T23:33:21.260Z,3.45
2018-02-18T23:35:47.494Z,3.42
2018-02-18T23:38:13.684Z,3.39
2018-02-18T23:40:39.846Z,3.36
2018-02-18T23:43:06.039Z,3.35
2018-02-18T23:45:32.228Z,3.30
2018-02-18T23:47:58.368Z,3.28
2018-02-18T23:50:24.587Z,3.26
2018-02-18T23:52:50.741Z,3.24
2018-02-18T23:55:16.914Z,3.21
2018-02-18T23:57:43.144Z,3.20
